Time;durP1;ratioP1;P1;durP2;ratioP2;P2;SDS_P1;SDS_P2;PMS_P1;PMS_P2;Temp;Humidity;BMP_temperature;BMP_pressure;BME280_temperature;BME280_humidity;BME280_pressure;Samples;Min_cycle;Max_cycle;Signal;HPM_P1;HPM_P2
2021/12/21 00:02:25;;;;;;;16.65;5.93;;;;;;;-1.94;81.66;100598.53;5000534;28;20387;-77
2021/12/21 00:04:50;;;;;;;11.95;6.32;;;;;;;-1.96;82.24;100607.97;4994150;28;20065;-78
2021/12/21 00:07:16;;;;;;;15.60;6.25;;;;;;;-1.99;82.27;100613.13;4993023;28;20044;-77
2021/12/21 00:09:41;;;;;;;29.35;7.65;;;;;;;-1.95;82.22;100610.56;4974619;28;20065;-75
2021/12/21 00:12:08;;;;;;;14.65;5.25;;;;;;;-1.92;81.46;100607.16;4991791;28;20045;-75
2021/12/21 00:14:45;;;;;;;14.93;5.93;;;;;;;-1.89;81.59;100608.94;4991689;28;20034;-76
2021/12/21 00:17:18;;;;;;;21.05;6.70;;;;;;;-1.89;81.16;100608.94;4992376;28;20129;-76
2021/12/21 00:20:06;;;;;;;22.05;7.75;;;;;;;-1.90;81.27;100600.31;4994879;28;20034;-75
2021/12/21 00:25:17;;;;;;;9.98;5.30;;;;;;;-1.93;80.83;100595.09;4994656;28;20038;-77
2021/12/21 00:27:44;;;;;;;10.93;5.43;;;;;;;-1.97;80.35;100596.78;4994351;28;20040;-77
2021/12/21 00:30:10;;;;;;;13.88;6.55;;;;;;;-2.04;80.58;100589.78;4993951;28;20093;-74
2021/12/21 00:32:35;;;;;;;14.88;6.22;;;;;;;-2.11;81.50;100590.53;4975058;28;20092;-77
2021/12/21 00:35:01;;;;;;;14.63;5.72;;;;;;;-2.14;81.25;100580.16;4973956;28;20125;-76
2021/12/21 00:37:28;;;;;;;22.00;7.43;;;;;;;-2.11;81.34;100581.94;4973551;28;20039;-75
2021/12/21 00:39:53;;;;;;;8.93;5.40;;;;;;;-2.07;81.16;100578.53;4991098;28;20038;-76
2021/12/21 00:42:19;;;;;;;13.82;5.72;;;;;;;-2.09;81.13;100582.78;4991322;28;20481;-75
2021/12/21 00:44:44;;;;;;;12.70;6.22;;;;;;;-2.07;81.32;100576.81;4991236;28;20038;-76
2021/12/21 00:47:10;;;;;;;11.25;4.53;;;;;;;-2.09;81.30;100577.63;4990943;28;20458;-77
2021/12/21 00:49:37;;;;;;;15.75;7.10;;;;;;;-2.12;80.94;100581.03;4991639;28;20030;-75
2021/12/21 00:52:03;;;;;;;11.85;4.35;;;;;;;-2.18;81.12;100578.38;4991256;28;20034;-77
2021/12/21 00:54:28;;;;;;;18.17;6.28;;;;;;;-2.22;80.61;100587.78;4991327;28;20677;-74
2021/12/21 00:56:53;;;;;;;9.73;4.97;;;;;;;-2.27;81.55;100585.97;4990563;28;20045;-76
2021/12/21 00:59:19;;;;;;;14.90;7.15;;;;;;;-2.30;80.79;100581.63;4973658;28;20525;-76
2021/12/21 01:01:47;;;;;;;11.57;6.00;;;;;;;-2.36;81.06;100578.97;4991368;28;20461;-76
2021/12/21 01:04:21;;;;;;;9.57;4.72;;;;;;;-2.41;81.24;100586.63;4991341;28;20048;-75
2021/12/21 01:07:01;;;;;;;7.63;4.43;;;;;;;-2.38;81.90;100581.50;4991906;28;20022;-77
2021/12/21 01:12:13;;;;;;;10.98;4.10;;;;;;;-2.36;81.28;100576.38;4991858;28;20562;-77
2021/12/21 01:17:29;;;;;;;13.07;5.75;;;;;;;-2.32;80.84;100577.28;4994150;28;20550;-75
2021/12/21 01:20:04;;;;;;;13.23;5.38;;;;;;;-2.33;80.49;100570.41;4986790;28;20102;-75
2021/12/21 01:27:58;;;;;;;4.68;3.05;;;;;;;-2.35;81.15;100572.09;4991537;28;20398;-75
2021/12/21 01:33:09;;;;;;;21.58;3.90;;;;;;;-2.42;81.07;100561.63;4973387;28;20038;-75
2021/12/21 01:35:39;;;;;;;8.18;4.05;;;;;;;-2.47;81.09;100563.28;4990837;28;20034;-75
2021/12/21 01:38:18;;;;;;;15.50;5.15;;;;;;;-2.49;81.52;100558.94;4991468;28;20034;-75
2021/12/21 01:43:28;;;;;;;10.80;4.55;;;;;;;-2.57;81.43;100548.50;4991343;28;20022;-75
2021/12/21 01:51:24;;;;;;;11.95;4.82;;;;;;;-2.50;80.95;100554.63;4990448;28;20440;-75
2021/12/21 01:53:50;;;;;;;11.02;4.38;;;;;;;-2.56;80.55;100555.38;4973278;28;20034;-75
2021/12/21 01:56:16;;;;;;;7.93;4.13;;;;;;;-2.61;80.98;100552.75;4989682;28;20030;-75
2021/12/21 01:58:42;;;;;;;13.15;4.03;;;;;;;-2.60;80.88;100549.31;4990493;28;20046;-75
2021/12/21 02:01:12;;;;;;;5.85;3.45;;;;;;;-2.59;80.70;100551.03;4935016;28;20073;-75
2021/12/21 02:03:38;;;;;;;4.82;2.67;;;;;;;-2.61;80.63;100551.84;4985340;28;20038;-75
2021/12/21 02:06:05;;;;;;;5.00;3.08;;;;;;;-2.56;80.52;100546.78;4972284;28;20035;-76
2021/12/21 02:08:30;;;;;;;11.88;3.65;;;;;;;-2.56;80.95;100549.34;4990168;28;20034;-74
2021/12/21 02:11:00;;;;;;;5.10;3.33;;;;;;;-2.56;80.81;100539.88;4990217;28;20041;-74
2021/12/21 02:13:31;;;;;;;7.32;3.30;;;;;;;-2.57;79.92;100542.47;4989818;28;20058;-76
2021/12/21 02:15:57;;;;;;;9.63;3.00;;;;;;;-2.61;80.18;100538.94;4989817;28;20041;-75
2021/12/21 02:21:03;;;;;;;7.25;4.00;;;;;;;-2.67;80.23;100537.16;4989615;28;20050;-74
2021/12/21 02:23:34;;;;;;;10.57;3.17;;;;;;;-2.68;80.15;100540.59;4989316;28;20038;-76
2021/12/21 02:26:22;;;;;;;7.22;3.15;;;;;;;-2.69;80.37;100535.38;4988650;28;20046;-75
2021/12/21 02:29:09;;;;;;;7.53;3.17;;;;;;;-2.73;80.17;100531.91;4990131;28;20081;-75
2021/12/21 02:31:33;;;;;;;6.88;3.45;;;;;;;-2.70;80.58;100534.53;4988915;28;20061;-75
2021/12/21 02:33:58;;;;;;;8.32;3.17;;;;;;;-2.64;79.81;100538.91;4989948;28;20050;-75
2021/12/21 02:36:24;;;;;;;10.07;3.03;;;;;;;-2.63;80.00;100538.09;4988492;28;20053;-76
2021/12/21 02:38:49;;;;;;;6.32;3.28;;;;;;;-2.61;79.85;100534.69;4988560;28;20114;-75
2021/12/21 02:41:15;;;;;;;8.93;3.10;;;;;;;-2.56;79.63;100542.47;4972097;28;20049;-75
2021/12/21 02:43:41;;;;;;;7.57;3.33;;;;;;;-2.61;79.80;100536.38;4989755;28;20125;-75
2021/12/21 02:46:07;;;;;;;4.18;2.70;;;;;;;-2.65;79.69;100534.59;4991409;28;20041;-75
2021/12/21 02:48:33;;;;;;;7.00;3.03;;;;;;;-2.68;79.34;100543.16;4991184;28;20066;-76
2021/12/21 02:50:59;;;;;;;7.30;3.40;;;;;;;-2.78;79.54;100543.84;4974122;28;20038;-76
2021/12/21 02:53:24;;;;;;;5.28;3.05;;;;;;;-2.82;80.11;100542.06;4975153;28;20042;-76
2021/12/21 02:55:50;;;;;;;6.47;3.15;;;;;;;-2.84;80.36;100530.84;4994412;28;20028;-77
2021/12/21 02:58:15;;;;;;;10.80;3.60;;;;;;;-2.85;80.52;100529.13;4997760;28;20047;-75
2021/12/21 03:00:41;;;;;;;4.93;2.80;;;;;;;-2.88;80.27;100539.34;4996156;28;20038;-75
2021/12/21 03:03:12;;;;;;;12.60;3.72;;;;;;;-2.93;80.11;100533.25;4979096;28;20042;-75
2021/12/21 03:05:38;;;;;;;9.13;3.55;;;;;;;-2.95;80.19;100527.19;4994392;28;20034;-76
2021/12/21 03:08:12;;;;;;;10.77;3.30;;;;;;;-3.00;79.80;100531.41;4977173;28;20398;-75
2021/12/21 03:10:45;;;;;;;13.95;4.13;;;;;;;-2.98;80.79;100535.75;4990816;28;20109;-75
2021/12/21 03:15:54;;;;;;;6.03;2.50;;;;;;;-3.02;80.73;100528.81;4991905;28;20069;-75
2021/12/21 03:18:20;;;;;;;12.27;5.03;;;;;;;-3.06;80.50;100532.16;4976787;28;20046;-76
2021/12/21 03:20:45;;;;;;;7.70;4.13;;;;;;;-3.13;80.49;100525.16;4993737;28;20042;-75
2021/12/21 03:23:10;;;;;;;5.60;2.92;;;;;;;-3.14;80.73;100523.44;4990550;28;20038;-76
2021/12/21 03:25:36;;;;;;;8.93;3.33;;;;;;;-3.15;80.18;100521.69;4989088;28;20134;-76
2021/12/21 03:28:01;;;;;;;7.80;4.22;;;;;;;-3.15;80.27;100520.00;4991173;28;20035;-75
2021/12/21 03:30:27;;;;;;;7.78;3.30;;;;;;;-3.17;80.96;100525.97;4992890;28;20038;-75
2021/12/21 03:32:53;;;;;;;11.03;3.50;;;;;;;-3.16;80.78;100518.25;4996884;28;20554;-75
2021/12/21 03:35:18;;;;;;;4.73;2.80;;;;;;;-3.20;80.84;100515.56;4997385;28;20116;-75
2021/12/21 03:37:44;;;;;;;9.23;3.73;;;;;;;-3.24;79.96;100510.38;4981501;28;20482;-75
2021/12/21 03:40:09;;;;;;;8.53;2.97;;;;;;;-3.21;79.91;100509.56;5008062;28;20046;-75
2021/12/21 03:42:35;;;;;;;6.20;2.83;;;;;;;-3.24;80.71;100512.94;4982427;28;20038;-74
2021/12/21 03:45:00;;;;;;;9.33;3.47;;;;;;;-3.23;80.58;100516.38;4980762;28;20423;-75
2021/12/21 03:47:26;;;;;;;8.27;3.20;;;;;;;-3.18;80.47;100526.78;4996766;28;20402;-75
2021/12/21 03:49:55;;;;;;;7.90;2.93;;;;;;;-3.16;80.94;100519.97;4994561;28;20490;-77
2021/12/21 03:52:24;;;;;;;9.03;2.97;;;;;;;-3.12;80.51;100516.59;4990748;28;20069;-77
2021/12/21 03:54:52;;;;;;;9.77;3.50;;;;;;;-3.16;79.44;100513.09;4990268;28;20398;-77
2021/12/21 03:57:18;;;;;;;7.27;2.80;;;;;;;-3.20;80.34;100521.59;4989912;28;20391;-77
2021/12/21 03:59:45;;;;;;;8.63;3.33;;;;;;;-3.24;79.69;100522.41;4976043;28;20049;-76
2021/12/21 04:02:12;;;;;;;8.93;2.70;;;;;;;-3.28;80.23;100518.88;4997611;28;20058;-77
2021/12/21 04:04:39;;;;;;;7.13;3.13;;;;;;;-3.26;79.86;100514.63;4996579;28;20034;-77
2021/12/21 04:07:04;;;;;;;7.30;3.10;;;;;;;-3.29;80.70;100514.56;4998610;28;20064;-77
2021/12/21 04:09:30;;;;;;;6.83;2.60;;;;;;;-3.29;80.66;100503.41;5005282;28;20031;-76
2021/12/21 04:11:55;;;;;;;3.77;2.27;;;;;;;-3.27;79.98;100510.31;5004818;28;20031;-77
2021/12/21 04:14:20;;;;;;;8.37;3.10;;;;;;;-3.25;80.65;100502.59;4981327;28;20046;-75
2021/12/21 04:16:46;;;;;;;4.87;2.87;;;;;;;-3.26;80.54;100504.31;4993742;28;20513;-76
2021/12/21 04:19:13;;;;;;;8.00;3.23;;;;;;;-3.28;80.09;100508.56;4994781;28;20053;-77
2021/12/21 04:21:39;;;;;;;10.23;3.07;;;;;;;-3.25;79.92;100507.75;4996497;28;20038;-76
2021/12/21 04:24:04;;;;;;;6.53;3.57;;;;;;;-3.28;80.74;100503.41;4999571;28;20125;-77
2021/12/21 04:26:30;;;;;;;7.10;3.93;;;;;;;-3.25;80.38;100505.16;4974190;28;20030;-78
2021/12/21 04:28:55;;;;;;;5.83;2.57;;;;;;;-3.26;80.14;100508.59;4992729;28;20410;-76
2021/12/21 04:31:21;;;;;;;7.77;2.60;;;;;;;-3.34;79.36;100507.59;4991928;28;20038;-77
2021/12/21 04:33:47;;;;;;;5.30;2.63;;;;;;;-3.40;79.37;100502.31;4991734;28;20177;-77
2021/12/21 04:36:13;;;;;;;5.63;3.60;;;;;;;-3.44;79.53;100498.81;4973765;28;20085;-77
2021/12/21 04:38:43;;;;;;;7.70;2.90;;;;;;;-3.44;80.20;100496.25;4991365;28;20041;-76
2021/12/21 04:41:26;;;;;;;6.70;2.93;;;;;;;-3.46;80.75;100493.63;4991417;28;20034;-76
2021/12/21 04:43:53;;;;;;;10.03;3.30;;;;;;;-3.43;79.79;100492.81;4990987;28;20165;-76
2021/12/21 04:46:19;;;;;;;5.60;3.60;;;;;;;-3.44;80.73;100492.81;4990578;28;20115;-77
2021/12/21 04:48:45;;;;;;;8.70;4.73;;;;;;;-3.49;79.73;100496.16;4991140;28;20541;-76
2021/12/21 04:51:10;;;;;;;4.90;3.30;;;;;;;-3.48;80.13;100492.72;4991337;28;20121;-76
2021/12/21 04:53:35;;;;;;;7.70;3.10;;;;;;;-3.48;79.54;100490.16;4991041;28;20054;-76
2021/12/21 04:56:02;;;;;;;5.53;3.20;;;;;;;-3.48;80.54;100492.72;4989778;28;20045;-76
2021/12/21 04:58:28;;;;;;;9.47;3.63;;;;;;;-3.44;80.41;100491.09;4991104;28;20042;-77
2021/12/21 05:00:53;;;;;;;6.30;2.20;;;;;;;-3.44;80.70;100491.09;4991345;28;20067;-77
2021/12/21 05:03:18;;;;;;;7.87;2.60;;;;;;;-3.47;79.80;100494.47;4991028;28;20030;-76
2021/12/21 05:05:44;;;;;;;6.20;3.20;;;;;;;-3.51;79.91;100500.41;4990783;28;20034;-77
2021/12/21 05:08:10;;;;;;;6.22;2.85;;;;;;;-3.53;80.13;100496.94;4991063;28;20045;-76
2021/12/21 05:10:45;;;;;;;4.80;2.30;;;;;;;-3.53;79.83;100493.50;4978920;28;20177;-76
2021/12/21 05:13:12;;;;;;;8.40;7.00;;;;;;;-3.53;80.20;100488.34;4962913;28;20058;-77
2021/12/21 05:15:38;;;;;;;5.23;2.73;;;;;;;-3.53;80.05;100488.34;4960670;28;20031;-77
2021/12/21 05:18:03;;;;;;;7.13;4.30;;;;;;;-3.56;79.87;100486.56;4966111;28;20102;-77
2021/12/21 05:20:29;;;;;;;6.10;2.60;;;;;;;-3.62;80.18;100477.84;4984637;28;20033;-77
2021/12/21 05:22:54;;;;;;;12.07;3.70;;;;;;;-3.69;80.18;100490.63;4972776;28;22779;-77
2021/12/21 05:25:20;;;;;;;5.70;2.80;;;;;;;-3.70;79.97;100488.88;4972494;28;20070;-76
2021/12/21 05:27:45;;;;;;;7.03;3.97;;;;;;;-3.72;79.67;100490.53;4990130;28;20042;-76
2021/12/21 05:30:12;;;;;;;7.83;3.73;;;;;;;-3.72;79.80;100495.69;4991190;28;20041;-77
2021/12/21 05:32:37;;;;;;;8.83;3.23;;;;;;;-3.71;80.65;100488.84;4992105;28;20093;-77
2021/12/21 05:35:03;;;;;;;9.20;3.47;;;;;;;-3.69;80.71;100488.03;4991420;28;20528;-76
2021/12/21 05:37:28;;;;;;;11.07;3.80;;;;;;;-3.68;80.28;100491.47;4990649;28;20042;-76
2021/12/21 05:40:08;;;;;;;10.60;4.30;;;;;;;-3.71;80.41;100494.88;4990454;28;20118;-76
2021/12/21 05:42:34;;;;;;;9.13;4.27;;;;;;;-3.71;80.87;100488.84;4990706;28;20046;-77
2021/12/21 05:44:59;;;;;;;7.47;3.27;;;;;;;-3.67;80.14;100481.22;4989537;28;20066;-77
2021/12/21 05:47:24;;;;;;;8.80;3.43;;;;;;;-3.65;80.49;100476.06;4989434;28;20035;-77
2021/12/21 05:49:50;;;;;;;7.67;4.13;;;;;;;-3.68;80.22;100479.47;4989372;28;20034;-77
2021/12/21 05:52:15;;;;;;;10.70;3.57;;;;;;;-3.71;80.01;100471.69;4989841;28;20043;-78
2021/12/21 05:54:40;;;;;;;8.63;4.33;;;;;;;-3.74;79.76;100483.63;4989664;28;20038;-77
2021/12/21 05:57:06;;;;;;;7.20;3.73;;;;;;;-3.75;79.65;100471.59;4989442;28;20045;-76
2021/12/21 05:59:31;;;;;;;9.03;4.90;;;;;;;-3.76;80.20;100487.91;4990214;28;20040;-77
2021/12/21 06:01:57;;;;;;;7.87;4.33;;;;;;;-3.78;79.92;100482.69;4989786;28;20045;-77
2021/12/21 06:04:24;;;;;;;14.10;5.23;;;;;;;-3.75;79.74;100494.78;4989643;28;20038;-76
2021/12/21 06:06:49;;;;;;;7.37;3.67;;;;;;;-3.69;79.74;100482.91;4989674;28;20030;-76
2021/12/21 06:09:15;;;;;;;10.20;5.20;;;;;;;-3.65;79.60;100483.81;4992788;28;20046;-77
2021/12/21 06:11:48;;;;;;;6.93;3.43;;;;;;;-3.65;80.63;100486.38;5000222;28;20570;-76
2021/12/21 06:14:37;;;;;;;12.57;5.93;;;;;;;-3.62;79.63;100495.88;4984896;28;20049;-77
2021/12/21 06:27:53;;;;;;;12.53;5.00;;;;;;;-3.67;79.12;100491.53;4992111;28;20112;-75
2021/12/21 06:30:21;;;;;;;17.03;7.80;;;;;;;-3.72;79.17;100484.53;4992305;28;20042;-76
2021/12/21 06:32:47;;;;;;;9.97;5.03;;;;;;;-3.71;79.58;100483.69;5002847;28;20098;-75
2021/12/21 06:35:13;;;;;;;16.30;6.53;;;;;;;-3.68;80.52;100491.47;5003856;28;20054;-77
2021/12/21 06:37:39;;;;;;;12.57;5.27;;;;;;;-3.70;79.51;100491.44;5004341;28;20046;-75
2021/12/21 06:40:04;;;;;;;13.20;3.60;;;;;;;-3.69;80.44;100498.34;4996405;28;20113;-75
2021/12/21 06:42:30;;;;;;;12.40;4.13;;;;;;;-3.68;80.35;100497.50;4991570;28;20042;-76
2021/12/21 06:44:59;;;;;;;8.77;3.90;;;;;;;-3.70;79.13;100499.16;4988996;28;20117;-76
2021/12/21 06:52:54;;;;;;;13.50;4.77;;;;;;;-3.73;79.71;100508.56;4994863;28;20041;-76
2021/12/21 06:55:20;;;;;;;8.33;4.40;;;;;;;-3.75;80.06;100502.50;4991800;28;20155;-76
2021/12/21 06:57:45;;;;;;;6.30;3.63;;;;;;;-3.72;80.14;100511.16;4975849;28;20064;-75
2021/12/21 07:00:13;;;;;;;5.97;3.53;;;;;;;-3.69;79.59;100508.66;4972345;28;20402;-75
2021/12/21 07:02:38;;;;;;;7.10;3.43;;;;;;;-3.67;79.38;100504.41;4954035;28;20051;-75
2021/12/21 07:05:04;;;;;;;9.43;3.40;;;;;;;-3.65;79.68;100500.97;4969562;28;20123;-75
2021/12/21 07:07:30;;;;;;;7.17;3.93;;;;;;;-3.65;78.77;100507.00;4969912;28;20483;-75
2021/12/21 07:10:02;;;;;;;7.37;4.27;;;;;;;-3.64;78.64;100507.84;4972270;28;20053;-75
2021/12/21 07:18:00;;;;;;;10.30;4.00;;;;;;;-3.69;79.47;100505.22;4970385;28;20125;-75
2021/12/21 07:20:32;;;;;;;5.20;3.10;;;;;;;-3.72;79.39;100505.13;4969497;28;20071;-77
2021/12/21 07:22:57;;;;;;;8.00;5.03;;;;;;;-3.77;79.36;100512.75;4985200;28;20042;-74
2021/12/21 07:25:25;;;;;;;10.60;4.13;;;;;;;-3.81;78.55;100513.56;4990132;28;20053;-75
2021/12/21 07:27:51;;;;;;;13.30;4.17;;;;;;;-3.85;79.68;100514.31;4989899;28;20042;-77
2021/12/21 07:30:16;;;;;;;82.33;13.30;;;;;;;-3.84;79.14;100512.59;4992396;28;20046;-76
2021/12/21 07:32:42;;;;;;;27.33;8.43;;;;;;;-3.80;80.03;100517.00;4990577;28;20121;-75
2021/12/21 07:35:07;;;;;;;40.47;9.37;;;;;;;-3.73;79.92;100513.72;4999606;28;20046;-75
2021/12/21 07:37:33;;;;;;;20.50;5.43;;;;;;;-3.73;79.42;100514.56;4992186;28;20046;-75
2021/12/21 07:39:58;;;;;;;24.50;6.30;;;;;;;-3.79;78.97;100516.16;4973960;28;20042;-77
2021/12/21 07:42:24;;;;;;;15.47;5.40;;;;;;;-3.80;80.09;100520.44;4974403;28;20113;-76
2021/12/21 07:44:49;;;;;;;18.83;6.77;;;;;;;-3.78;79.90;100515.34;4992640;28;20061;-76
2021/12/21 07:47:16;;;;;;;16.13;4.13;;;;;;;-3.75;78.79;100525.69;4993627;28;20475;-74
2021/12/21 07:49:42;;;;;;;12.10;3.90;;;;;;;-3.76;79.66;100529.13;4974930;28;20546;-78
2021/12/21 07:52:09;;;;;;;8.37;3.17;;;;;;;-3.74;79.55;100528.31;4993192;28;20066;-75
2021/12/21 07:54:35;;;;;;;12.17;3.40;;;;;;;-3.75;79.04;100531.69;4991804;28;20137;-76
2021/12/21 07:57:00;;;;;;;12.80;6.57;;;;;;;-3.78;79.46;100529.06;4991439;28;20534;-76
2021/12/21 07:59:25;;;;;;;10.63;5.90;;;;;;;-3.83;79.15;100530.69;4994903;28;20048;-78
2021/12/21 08:01:52;;;;;;;13.43;4.93;;;;;;;-3.80;79.16;100529.88;4998977;28;20073;-75
2021/12/21 08:04:17;;;;;;;7.27;3.60;;;;;;;-3.71;79.56;100525.78;5005527;28;20042;-75
2021/12/21 08:06:46;;;;;;;11.07;3.73;;;;;;;-3.69;78.84;100521.53;5004372;28;20193;-76
2021/12/21 08:09:12;;;;;;;9.70;3.83;;;;;;;-3.76;78.32;100522.25;4996624;28;20038;-78
2021/12/21 08:14:04;;;;;;;6.17;3.47;;;;;;;-3.75;79.17;100526.56;4976055;28;20114;-76
2021/12/21 08:16:30;;;;;;;14.47;3.60;;;;;;;-3.74;79.33;100527.41;4991964;28;20042;-76
2021/12/21 08:18:55;;;;;;;9.87;4.03;;;;;;;-3.69;79.17;100536.13;4992783;28;20553;-77
2021/12/21 08:21:23;;;;;;;6.27;3.07;;;;;;;-3.67;79.11;100530.19;4992129;28;20041;-76
2021/12/21 08:23:48;;;;;;;8.50;3.67;;;;;;;-3.63;78.94;100519.91;4992968;28;20046;-77
2021/12/21 08:26:15;;;;;;;9.40;3.60;;;;;;;-3.65;79.54;100519.88;4974316;28;20100;-76
2021/12/21 08:28:40;;;;;;;7.23;3.27;;;;;;;-3.59;79.11;100530.31;4992084;28;20077;-77
2021/12/21 08:31:13;;;;;;;9.17;3.13;;;;;;;-3.50;79.77;100527.03;4992614;28;20046;-76
2021/12/21 08:33:40;;;;;;;10.20;4.30;;;;;;;-3.46;79.38;100527.13;4992682;28;20046;-78
2021/12/21 08:36:06;;;;;;;12.37;3.77;;;;;;;-3.43;79.12;100522.88;4993263;28;20096;-77
2021/12/21 08:38:32;;;;;;;9.50;4.23;;;;;;;-3.38;79.53;100526.41;4992698;28;20046;-76
2021/12/21 08:40:59;;;;;;;11.33;4.17;;;;;;;-3.33;79.36;100519.63;4992666;28;20205;-77
2021/12/21 08:43:28;;;;;;;11.57;4.00;;;;;;;-3.27;79.21;100519.78;4993289;28;20046;-77
2021/12/21 08:45:55;;;;;;;24.47;3.77;;;;;;;-3.19;79.90;100519.91;4991297;28;20030;-77
2021/12/21 08:48:22;;;;;;;5.10;3.23;;;;;;;-3.11;79.67;100518.31;4992173;28;20043;-75
2021/12/21 08:50:49;;;;;;;9.50;3.50;;;;;;;-3.04;79.65;100518.47;4992174;28;20062;-77
2021/12/21 08:53:16;;;;;;;8.17;3.67;;;;;;;-2.94;79.11;100519.50;4995349;28;20034;-77
2021/12/21 08:55:42;;;;;;;4.53;3.47;;;;;;;-2.88;79.73;100516.13;4992628;28;20042;-76
2021/12/21 08:58:09;;;;;;;7.38;3.65;;;;;;;-2.74;80.35;100517.25;4991575;28;20047;-76
2021/12/21 09:00:34;;;;;;;6.90;3.78;;;;;;;-2.67;79.16;100518.22;4991091;28;20521;-76
2021/12/21 09:03:00;;;;;;;6.15;3.28;;;;;;;-2.64;79.73;100518.25;4990769;28;20077;-74
2021/12/21 09:05:31;;;;;;;7.13;3.20;;;;;;;-2.54;79.57;100517.56;4991129;28;20177;-78
2021/12/21 09:07:57;;;;;;;12.82;4.47;;;;;;;-2.44;78.88;100522.00;4974520;28;20042;-75
2021/12/21 09:10:24;;;;;;;6.63;3.65;;;;;;;-2.34;78.73;100517.00;4988642;28;20073;-76
2021/12/21 09:12:50;;;;;;;8.80;3.25;;;;;;;-2.27;78.90;100519.69;4974226;28;20038;-75
2021/12/21 09:15:17;;;;;;;5.82;3.65;;;;;;;-2.20;78.95;100520.66;4973960;28;20109;-75
2021/12/21 09:17:44;;;;;;;7.45;2.97;;;;;;;-2.08;78.57;100519.97;4991457;28;20046;-75
2021/12/21 09:20:12;;;;;;;6.55;3.22;;;;;;;-2.02;78.01;100520.03;4990938;28;20042;-76
2021/12/21 09:22:38;;;;;;;9.05;3.50;;;;;;;-1.95;78.38;100519.28;4991524;28;20039;-75
2021/12/21 09:25:04;;;;;;;4.97;2.72;;;;;;;-1.85;77.83;100517.69;4990569;28;20065;-76
2021/12/21 09:27:29;;;;;;;7.80;3.97;;;;;;;-1.74;77.59;100523.88;4991383;28;20046;-75
2021/12/21 09:29:54;;;;;;;7.22;3.78;;;;;;;-1.59;77.40;100528.34;4990760;28;20478;-76
2021/12/21 09:32:20;;;;;;;9.07;3.35;;;;;;;-0.09;74.20;100527.13;4990723;28;20046;-76
2021/12/21 09:34:46;;;;;;;7.22;4.70;;;;;;;1.57;68.38;100517.16;4991385;28;20061;-76
2021/12/21 09:37:18;;;;;;;10.13;3.85;;;;;;;2.87;62.84;100525.44;4990475;28;20046;-78
2021/12/21 09:39:47;;;;;;;9.02;4.88;;;;;;;4.13;59.48;100525.22;4990371;28;20394;-75
2021/12/21 09:42:15;;;;;;;7.47;4.72;;;;;;;4.99;55.78;100520.66;4990537;28;20046;-76
2021/12/21 09:44:40;;;;;;;8.82;3.70;;;;;;;5.70;54.35;100526.50;4989928;28;20398;-75
2021/12/21 09:47:09;;;;;;;11.30;4.60;;;;;;;6.26;50.70;100523.75;4990299;28;20034;-76
2021/12/21 09:49:35;;;;;;;12.82;5.05;;;;;;;6.69;49.22;100524.63;4986365;28;20054;-77
2021/12/21 09:52:00;;;;;;;15.73;6.82;;;;;;;7.07;47.75;100526.41;4969032;28;20475;-77
2021/12/21 09:54:26;;;;;;;10.00;4.82;;;;;;;7.32;47.27;100522.31;4968269;28;20049;-77
2021/12/21 09:56:52;;;;;;;16.98;5.45;;;;;;;7.31;46.44;100515.34;4985791;28;20039;-77
2021/12/21 09:59:17;;;;;;;10.98;6.57;;;;;;;7.42;46.64;100508.97;4985874;28;20399;-78
2021/12/21 10:01:43;;;;;;;10.63;4.82;;;;;;;7.69;45.80;100510.91;4986062;28;20064;-76
2021/12/21 10:04:08;;;;;;;9.82;4.60;;;;;;;8.05;44.65;100505.59;4987017;28;20393;-77
2021/12/21 10:06:49;;;;;;;11.40;4.70;;;;;;;8.29;44.70;100505.78;4968745;28;20096;-76
2021/12/21 10:09:16;;;;;;;12.73;6.03;;;;;;;8.33;44.35;100503.03;4969005;28;20760;-77
2021/12/21 10:11:44;;;;;;;12.77;7.75;;;;;;;8.37;44.44;100499.44;4986425;28;20061;-77
2021/12/21 10:14:10;;;;;;;12.13;7.45;;;;;;;8.17;44.04;100499.13;4977520;28;20038;-77
2021/12/21 10:16:35;;;;;;;12.40;6.32;;;;;;;7.70;45.53;100506.50;4985161;28;20117;-76
2021/12/21 10:19:01;;;;;;;13.98;5.38;;;;;;;7.12;46.26;100495.72;4986048;28;20136;-76
2021/12/21 10:21:26;;;;;;;8.95;5.03;;;;;;;6.64;47.72;100501.16;4967809;28;20039;-78
2021/12/21 10:23:54;;;;;;;8.43;4.70;;;;;;;6.28;49.17;100508.03;4986089;28;20507;-77
2021/12/21 10:26:25;;;;;;;16.95;5.85;;;;;;;5.98;49.84;100503.38;4985247;28;20552;-76
2021/12/21 10:29:01;;;;;;;10.48;6.75;;;;;;;5.65;51.05;100503.94;4985771;28;20204;-75
2021/12/21 10:31:29;;;;;;;16.15;7.20;;;;;;;5.19;52.60;100504.69;4987272;28;20573;-75
2021/12/21 10:33:56;;;;;;;8.57;5.68;;;;;;;4.98;52.90;100498.91;4987465;28;20086;-75
2021/12/21 10:36:24;;;;;;;17.48;5.65;;;;;;;4.80;53.79;100500.03;4986430;28;20035;-76
2021/12/21 10:38:56;;;;;;;10.30;4.32;;;;;;;4.70;53.33;100503.63;4984761;28;20572;-75
2021/12/21 10:41:28;;;;;;;12.13;6.70;;;;;;;4.51;55.04;100498.69;4968434;28;20113;-75
2021/12/21 10:44:11;;;;;;;16.13;7.07;;;;;;;4.19;55.88;100506.03;4985982;28;20141;-75
2021/12/21 10:46:43;;;;;;;8.73;5.00;;;;;;;3.88;56.75;100496.78;4951350;28;20037;-75
2021/12/21 10:49:09;;;;;;;8.35;4.80;;;;;;;3.69;57.88;100494.38;4984049;28;20605;-75
2021/12/21 10:51:36;;;;;;;7.13;3.35;;;;;;;3.69;56.60;100495.25;4985653;28;20022;-75
2021/12/21 10:54:01;;;;;;;7.82;4.68;;;;;;;3.59;58.28;100491.88;4985234;28;20038;-74
2021/12/21 10:56:27;;;;;;;9.60;4.57;;;;;;;3.47;58.36;100483.28;4985021;28;20041;-74
2021/12/21 10:58:52;;;;;;;8.98;4.88;;;;;;;3.33;59.01;100475.63;4985861;28;20100;-76
2021/12/21 11:01:25;;;;;;;11.60;4.93;;;;;;;3.33;58.93;100475.63;4985777;28;20042;-76
2021/12/21 11:03:52;;;;;;;5.75;3.80;;;;;;;3.17;59.97;100467.91;4985732;28;20053;-78
2021/12/21 11:06:29;;;;;;;9.18;3.83;;;;;;;3.10;58.00;100462.75;4985483;28;20023;-76
2021/12/21 11:08:56;;;;;;;16.05;3.75;;;;;;;3.03;57.84;100472.38;4985851;28;20053;-77
2021/12/21 11:11:34;;;;;;;5.68;3.13;;;;;;;3.08;58.65;100470.59;4979029;28;20053;-75
2021/12/21 11:14:12;;;;;;;7.82;3.40;;;;;;;3.11;58.41;100462.75;5001080;28;20038;-77
2021/12/21 11:16:52;;;;;;;7.00;3.55;;;;;;;3.13;58.38;100458.41;5000728;28;20030;-76
2021/12/21 11:19:20;;;;;;;8.20;4.20;;;;;;;3.13;58.31;100453.19;4987680;28;20042;-76
2021/12/21 11:21:47;;;;;;;10.23;4.72;;;;;;;3.22;61.21;100453.13;4999779;28;20082;-76
2021/12/21 11:24:18;;;;;;;7.22;2.85;;;;;;;3.32;58.30;100447.81;4997108;28;20038;-77
2021/12/21 11:26:46;;;;;;;19.67;4.93;;;;;;;3.30;58.73;100444.34;4981321;28;20038;-76
2021/12/21 11:29:15;;;;;;;8.48;3.50;;;;;;;3.31;59.41;100440.88;4979567;28;20351;-77
2021/12/21 11:31:51;;;;;;;6.20;3.45;;;;;;;3.39;59.23;100423.41;4995044;28;20041;-77
2021/12/21 11:34:21;;;;;;;5.18;3.17;;;;;;;3.38;58.47;100432.13;4977846;28;20038;-76
2021/12/21 11:39:38;;;;;;;5.80;3.03;;;;;;;3.42;58.11;100425.97;4992831;28;20513;-76
2021/12/21 11:42:07;;;;;;;9.93;3.85;;;;;;;3.45;58.22;100420.78;4989642;28;20045;-76
2021/12/21 11:44:54;;;;;;;6.10;4.05;;;;;;;3.53;58.21;100425.91;4989005;28;20034;-76
2021/12/21 11:47:39;;;;;;;19.50;4.57;;;;;;;3.54;58.18;100417.19;4981533;28;20093;-77
2021/12/21 11:50:08;;;;;;;8.23;3.92;;;;;;;3.52;58.30;100417.22;4991434;28;20407;-76
2021/12/21 11:52:46;;;;;;;13.75;5.32;;;;;;;3.53;58.75;100415.47;4992068;28;20034;-74
2021/12/21 11:55:13;;;;;;;6.43;3.75;;;;;;;3.54;58.45;100411.97;4973861;28;20064;-74
2021/12/21 11:57:47;;;;;;;7.13;3.78;;;;;;;3.60;58.41;100409.31;4993170;28;20054;-76
2021/12/21 12:00:34;;;;;;;26.08;9.25;;;;;;;3.73;58.80;100407.44;4991174;28;20068;-78
2021/12/21 12:03:11;;;;;;;7.68;4.30;;;;;;;3.71;58.38;100401.38;4994968;28;20042;-77
2021/12/21 12:05:40;;;;;;;9.98;4.43;;;;;;;3.78;58.22;100403.03;4992125;28;20022;-77
2021/12/21 12:08:11;;;;;;;7.20;3.60;;;;;;;3.64;57.82;100411.00;4974898;28;20049;-77
2021/12/21 12:10:48;;;;;;;13.13;4.15;;;;;;;3.68;58.04;100396.19;4991185;28;20395;-77
2021/12/21 12:13:17;;;;;;;7.53;3.25;;;;;;;3.73;57.32;100391.78;4971989;28;20046;-77
2021/12/21 12:15:52;;;;;;;7.65;3.53;;;;;;;3.81;57.32;100395.16;4988367;28;20038;-77
2021/12/21 12:18:20;;;;;;;7.13;3.75;;;;;;;3.86;57.07;100393.34;4990196;28;20042;-77
2021/12/21 12:20:45;;;;;;;8.23;4.15;;;;;;;3.93;57.37;100387.19;4990873;28;20041;-76
2021/12/21 12:23:12;;;;;;;6.97;3.67;;;;;;;3.98;57.52;100393.22;4991310;28;20026;-75
2021/12/21 12:25:57;;;;;;;8.63;4.68;;;;;;;3.92;57.74;100388.09;4990911;28;20105;-76